createdAt,value
2023-03-21T00:00:28.998Z,124.68
2023-03-21T00:02:55.565Z,128.95
2023-03-21T00:05:22.479Z,122.57
2023-03-21T00:07:49.081Z,124.35
2023-03-21T00:10:23.923Z,120.88
2023-03-21T00:12:56.337Z,115.13
2023-03-21T00:15:24.988Z,112.47
2023-03-21T00:17:57.582Z,108.80
2023-03-21T00:20:24.244Z,117.95
2023-03-21T00:22:50.698Z,123.90
2023-03-21T00:25:17.234Z,137.20
2023-03-21T00:27:57.232Z,138.20
2023-03-21T00:32:57.017Z,155.18
2023-03-21T00:36:06.450Z,166.07
2023-03-21T00:38:10.623Z,160.63
2023-03-21T00:40:40.839Z,156.77
2023-03-21T00:43:16.118Z,155.90
2023-03-21T00:45:42.794Z,160.20
2023-03-21T00:48:09.774Z,166.40
2023-03-21T00:50:37.392Z,162.18
2023-03-21T00:53:03.877Z,131.52
2023-03-21T00:55:30.373Z,148.82
2023-03-21T00:58:02.172Z,135.60
2023-03-21T01:00:29.590Z,131.13
2023-03-21T01:03:02.666Z,134.30
2023-03-21T01:05:42.461Z,133.50
2023-03-21T01:08:22.989Z,131.57
2023-03-21T01:10:52.671Z,127.28
2023-03-21T01:15:57.473Z,119.50
2023-03-21T01:18:27.720Z,122.25
2023-03-21T01:20:56.062Z,128.95
2023-03-21T01:23:22.845Z,127.80
2023-03-21T01:25:50.930Z,124.00
2023-03-21T01:28:17.411Z,131.75
2023-03-21T01:30:48.826Z,126.20
2023-03-21T01:33:16.320Z,125.75
2023-03-21T01:35:51.625Z,125.80
2023-03-21T01:38:21.817Z,138.30
2023-03-21T01:40:49.884Z,145.35
2023-03-21T01:43:21.680Z,145.57
2023-03-21T01:46:10.629Z,144.38
2023-03-21T01:48:41.974Z,132.60
2023-03-21T01:51:12.356Z,120.13
2023-03-21T01:53:40.753Z,117.20
2023-03-21T01:56:42.653Z,118.07
2023-03-21T01:59:14.227Z,110.40
2023-03-21T02:01:41.136Z,108.28
2023-03-21T02:04:08.096Z,111.50
2023-03-21T02:06:51.851Z,123.43
2023-03-21T02:09:22.564Z,128.10
2023-03-21T02:11:49.350Z,138.50
2023-03-21T02:14:27.001Z,155.57
2023-03-21T02:17:24.098Z,147.07
2023-03-21T02:20:05.107Z,133.32
2023-03-21T02:22:31.519Z,127.63
2023-03-21T02:25:21.749Z,124.25
2023-03-21T02:28:00.580Z,127.85
2023-03-21T02:31:13.797Z,126.28
2023-03-21T02:33:57.426Z,122.32
2023-03-21T02:36:48.395Z,117.43
2023-03-21T02:39:19.463Z,116.28
2023-03-21T02:41:52.222Z,112.88
2023-03-21T02:44:41.612Z,111.28
2023-03-21T02:47:14.965Z,97.00
2023-03-21T02:50:10.430Z,90.10
2023-03-21T02:52:39.819Z,80.90
2023-03-21T02:55:14.564Z,73.97
2023-03-21T02:57:44.416Z,72.45
2023-03-21T03:00:17.517Z,67.72
2023-03-21T03:02:44.787Z,65.03
2023-03-21T03:05:21.354Z,65.65
2023-03-21T03:07:48.229Z,66.03
2023-03-21T03:10:44.029Z,70.72
2023-03-21T03:13:16.435Z,67.40
2023-03-21T03:15:56.800Z,67.38
2023-03-21T03:18:29.298Z,67.88
2023-03-21T03:21:07.950Z,65.25
2023-03-21T03:23:34.349Z,65.70
2023-03-21T03:26:17.902Z,63.70
2023-03-21T03:28:52.714Z,63.13
2023-03-21T03:31:24.215Z,62.28
2023-03-21T03:33:54.488Z,68.85
2023-03-21T03:36:32.038Z,64.00
2023-03-21T03:39:02.296Z,62.60
2023-03-21T03:41:31.875Z,68.35
2023-03-21T03:44:03.556Z,59.95
2023-03-21T03:46:31.993Z,68.43
2023-03-21T03:49:04.985Z,73.07
2023-03-21T03:51:39.076Z,64.45
2023-03-21T03:54:11.143Z,60.72
2023-03-21T03:56:38.119Z,60.38
2023-03-21T03:59:05.512Z,57.35
2023-03-21T04:01:32.073Z,55.78
2023-03-21T04:04:11.943Z,51.10
2023-03-21T04:06:39.122Z,50.38
2023-03-21T04:09:17.132Z,53.17
2023-03-21T04:11:46.277Z,52.20
2023-03-21T04:14:12.865Z,51.10
2023-03-21T04:16:39.354Z,52.25
2023-03-21T04:19:05.894Z,49.60
2023-03-21T04:21:32.577Z,48.58
2023-03-21T04:23:59.069Z,48.28
2023-03-21T04:26:25.775Z,48.08
2023-03-21T04:28:52.241Z,44.22
2023-03-21T04:31:25.472Z,46.55
2023-03-21T04:36:19.254Z,40.22
2023-03-21T04:38:45.739Z,42.25
2023-03-21T04:41:12.225Z,44.30
2023-03-21T04:43:38.701Z,41.90
2023-03-21T04:46:05.450Z,46.08
2023-03-21T04:48:31.951Z,45.05
2023-03-21T04:50:58.412Z,47.95
2023-03-21T04:53:24.862Z,46.53
2023-03-21T04:55:54.889Z,45.78
2023-03-21T04:58:21.853Z,50.45
2023-03-21T05:00:48.358Z,56.08
2023-03-21T05:03:14.879Z,52.22
2023-03-21T05:05:41.294Z,50.38
2023-03-21T05:08:07.764Z,52.42
2023-03-21T05:10:34.267Z,49.38
2023-03-21T05:13:00.758Z,49.55
2023-03-21T05:15:27.262Z,53.65
2023-03-21T05:17:53.757Z,58.35
2023-03-21T05:20:20.187Z,62.72
2023-03-21T05:22:46.614Z,57.03
2023-03-21T05:25:13.368Z,51.88
2023-03-21T05:27:40.134Z,54.10
2023-03-21T05:30:16.521Z,59.38
2023-03-21T05:32:43.083Z,52.85
2023-03-21T05:35:10.333Z,51.83
2023-03-21T05:37:36.892Z,53.05
2023-03-21T05:40:04.102Z,76.03
2023-03-21T05:42:30.577Z,60.65
2023-03-21T05:44:57.018Z,60.65
2023-03-21T05:47:23.508Z,63.10
2023-03-21T05:49:49.990Z,65.18
2023-03-21T05:52:16.823Z,59.55
2023-03-21T05:54:43.371Z,57.85
2023-03-21T05:57:10.160Z,56.42
2023-03-21T05:59:36.840Z,66.88
2023-03-21T06:02:03.910Z,72.07
2023-03-21T06:04:30.597Z,71.90
2023-03-21T06:06:57.336Z,62.38
2023-03-21T06:09:24.200Z,57.33
2023-03-21T06:11:52.892Z,57.97
2023-03-21T06:14:20.470Z,67.60
2023-03-21T06:16:46.970Z,71.75
2023-03-21T06:19:14.079Z,63.38
2023-03-21T06:21:40.747Z,60.65
2023-03-21T06:24:07.373Z,59.03
2023-03-21T06:26:33.901Z,57.00
2023-03-21T06:29:00.435Z,59.80
2023-03-21T06:31:26.939Z,63.63
2023-03-21T06:33:53.632Z,69.72
2023-03-21T06:36:20.508Z,68.68
2023-03-21T06:38:47.006Z,61.70
2023-03-21T06:41:13.643Z,44.75
2023-03-21T06:43:40.118Z,42.65
2023-03-21T06:46:06.591Z,39.08
2023-03-21T06:48:33.235Z,49.30
2023-03-21T06:50:59.706Z,50.15
2023-03-21T06:53:26.392Z,103.80
2023-03-21T06:55:54.453Z,100.40
2023-03-21T06:58:22.097Z,67.13
2023-03-21T07:00:49.106Z,56.22
2023-03-21T07:03:15.818Z,58.00
2023-03-21T07:05:42.789Z,54.92
2023-03-21T07:08:09.395Z,57.50
2023-03-21T07:10:39.274Z,55.10
2023-03-21T07:13:06.162Z,49.78
2023-03-21T07:15:32.976Z,55.53
2023-03-21T07:17:59.430Z,43.63
2023-03-21T07:20:26.148Z,46.30
2023-03-21T07:22:52.881Z,43.70
2023-03-21T07:25:19.405Z,56.92
2023-03-21T07:27:46.475Z,66.47
2023-03-21T07:30:14.008Z,60.25
2023-03-21T07:32:40.702Z,56.17
2023-03-21T07:35:10.648Z,60.13
2023-03-21T07:37:38.235Z,64.65
2023-03-21T07:40:05.263Z,70.18
2023-03-21T07:44:59.066Z,54.08
2023-03-21T07:47:25.526Z,50.05
2023-03-21T07:49:51.976Z,64.80
2023-03-21T07:52:18.456Z,50.45
2023-03-21T07:54:44.912Z,40.67
2023-03-21T07:57:13.546Z,35.72
2023-03-21T07:59:40.204Z,37.75
2023-03-21T08:02:07.030Z,35.10
2023-03-21T08:04:34.162Z,34.42
2023-03-21T08:09:27.023Z,40.60
2023-03-21T08:11:53.545Z,37.25
2023-03-21T08:14:20.033Z,29.08
2023-03-21T08:16:46.568Z,30.40
2023-03-21T08:19:13.071Z,33.47
2023-03-21T08:21:39.534Z,40.95
2023-03-21T08:24:06.169Z,36.00
2023-03-21T08:26:33.097Z,29.92
2023-03-21T08:29:00.020Z,26.15
2023-03-21T08:31:26.600Z,23.85
2023-03-21T08:33:53.106Z,27.45
2023-03-21T08:36:19.734Z,23.27
2023-03-21T08:38:46.219Z,22.67
2023-03-21T08:41:12.715Z,22.15
2023-03-21T08:43:39.189Z,24.95
2023-03-21T08:46:06.037Z,29.95
2023-03-21T08:48:32.777Z,28.83
2023-03-21T08:51:02.408Z,31.52
2023-03-21T08:53:28.922Z,36.55
2023-03-21T08:55:55.501Z,17.05
2023-03-21T08:58:22.998Z,15.63
2023-03-21T09:00:49.751Z,17.70
2023-03-21T09:03:16.467Z,14.45
2023-03-21T09:05:42.990Z,13.52
2023-03-21T09:08:09.461Z,12.13
2023-03-21T09:10:35.914Z,9.70
2023-03-21T09:13:02.381Z,9.27
2023-03-21T09:15:28.885Z,9.95
2023-03-21T09:17:56.335Z,11.65
2023-03-21T09:20:24.912Z,12.95
2023-03-21T09:22:52.168Z,8.15
2023-03-21T09:25:19.006Z,14.38
2023-03-21T09:27:46.090Z,10.77
2023-03-21T09:30:14.306Z,10.65
2023-03-21T09:32:40.794Z,9.77
2023-03-21T09:35:07.594Z,10.45
2023-03-21T09:37:34.306Z,9.57
2023-03-21T09:42:35.626Z,13.57
2023-03-21T09:45:12.593Z,36.95
2023-03-21T09:47:45.564Z,22.35
2023-03-21T09:52:56.948Z,7.63
2023-03-21T09:55:25.671Z,5.88
2023-03-21T09:58:23.841Z,6.43
2023-03-21T10:00:54.229Z,5.97
2023-03-21T10:03:24.827Z,13.40
2023-03-21T10:05:52.971Z,23.52
2023-03-21T10:08:26.902Z,12.25
2023-03-21T10:10:58.249Z,6.15
2023-03-21T10:13:29.224Z,7.60
2023-03-21T10:16:02.385Z,6.22
2023-03-21T10:18:31.321Z,8.02
2023-03-21T10:20:58.125Z,10.63
2023-03-21T10:23:29.400Z,6.10
2023-03-21T10:25:59.774Z,9.02
2023-03-21T10:28:46.026Z,8.75
2023-03-21T10:31:21.464Z,8.02
2023-03-21T10:33:50.585Z,9.00
2023-03-21T10:36:26.872Z,7.18
2023-03-21T10:38:58.303Z,6.55
2023-03-21T10:41:24.771Z,7.85
2023-03-21T10:44:16.697Z,10.43
2023-03-21T10:46:54.815Z,6.55
2023-03-21T10:49:22.295Z,7.57
2023-03-21T10:51:55.249Z,7.15
2023-03-21T10:56:57.964Z,8.88
2023-03-21T10:59:26.351Z,11.52
2023-03-21T11:01:56.438Z,6.22
2023-03-21T11:04:27.380Z,9.43
2023-03-21T11:06:57.410Z,6.78
2023-03-21T11:09:28.367Z,6.60
2023-03-21T11:12:02.988Z,12.35
2023-03-21T11:14:38.387Z,7.50
2023-03-21T11:17:20.420Z,14.90
2023-03-21T11:19:58.283Z,7.35
2023-03-21T11:22:46.120Z,10.63
2023-03-21T11:25:31.798Z,20.73
2023-03-21T11:28:04.946Z,9.73
2023-03-21T11:30:31.493Z,6.50
2023-03-21T11:33:02.337Z,9.07
2023-03-21T11:35:37.603Z,6.85
2023-03-21T11:38:05.329Z,7.10
2023-03-21T11:40:37.108Z,9.65
2023-03-21T11:43:18.653Z,9.40
2023-03-21T11:45:58.637Z,8.23
2023-03-21T11:48:25.830Z,6.97
2023-03-21T11:51:00.647Z,6.22
2023-03-21T11:54:08.471Z,8.20
2023-03-21T11:56:41.014Z,5.32
2023-03-21T11:59:23.248Z,4.90
2023-03-21T12:02:33.096Z,6.50
2023-03-21T12:05:17.352Z,5.57
2023-03-21T12:07:52.570Z,4.80
2023-03-21T12:10:32.754Z,4.32
2023-03-21T12:13:33.368Z,6.15
2023-03-21T12:16:30.903Z,6.32
2023-03-21T12:19:00.117Z,5.53
2023-03-21T12:22:01.918Z,6.20
2023-03-21T12:24:50.299Z,7.80
2023-03-21T12:27:25.749Z,7.88
2023-03-21T12:30:34.037Z,7.45
2023-03-21T12:33:06.249Z,7.45
2023-03-21T12:35:59.510Z,7.00
2023-03-21T12:38:40.458Z,38.10
2023-03-21T12:41:28.395Z,9.55
2023-03-21T12:44:03.179Z,6.03
2023-03-21T12:46:57.051Z,4.70
2023-03-21T12:49:46.861Z,4.03
2023-03-21T12:52:25.625Z,4.85
2023-03-21T12:54:57.484Z,5.38
2023-03-21T12:57:32.635Z,4.45
2023-03-21T13:00:17.485Z,4.07
2023-03-21T13:02:51.888Z,4.22
2023-03-21T13:05:33.540Z,4.07
2023-03-21T13:08:18.054Z,7.60
2023-03-21T13:10:45.626Z,16.42
2023-03-21T13:13:22.636Z,7.20
2023-03-21T13:16:18.512Z,6.40
2023-03-21T13:19:09.503Z,5.07
2023-03-21T13:21:51.148Z,7.05
2023-03-21T13:24:17.528Z,11.35
2023-03-21T13:26:49.484Z,16.40
2023-03-21T13:29:23.738Z,12.35
2023-03-21T13:31:54.600Z,5.50
2023-03-21T13:34:24.146Z,6.32
2023-03-21T13:36:52.202Z,5.57
2023-03-21T13:39:28.921Z,4.60
2023-03-21T13:41:55.500Z,4.72
2023-03-21T13:44:21.861Z,5.25
2023-03-21T13:46:59.991Z,6.25
2023-03-21T13:49:29.868Z,5.93
2023-03-21T13:51:58.808Z,6.35
2023-03-21T13:54:45.323Z,6.68
2023-03-21T13:57:41.054Z,7.15
2023-03-21T14:00:22.096Z,10.45
2023-03-21T14:02:59.569Z,6.70
2023-03-21T14:05:27.951Z,8.80
2023-03-21T14:08:27.767Z,8.68
2023-03-21T14:11:07.736Z,9.77
2023-03-21T14:13:38.111Z,10.40
2023-03-21T14:16:18.971Z,8.95
2023-03-21T14:18:56.124Z,8.30
2023-03-21T14:21:28.780Z,8.57
2023-03-21T14:24:04.021Z,9.80
2023-03-21T14:26:34.085Z,9.38
2023-03-21T14:29:05.511Z,9.27
2023-03-21T14:31:34.124Z,13.18
2023-03-21T14:34:02.376Z,8.35
2023-03-21T14:36:32.818Z,9.13
2023-03-21T14:39:15.749Z,8.80
2023-03-21T14:41:54.777Z,8.65
2023-03-21T14:44:25.319Z,8.45
2023-03-21T14:47:06.515Z,8.32
2023-03-21T14:52:26.133Z,14.13
2023-03-21T14:54:53.501Z,16.75
2023-03-21T14:57:24.045Z,13.88
2023-03-21T14:59:53.677Z,11.73
2023-03-21T15:02:22.623Z,10.73
2023-03-21T15:04:52.600Z,12.18
2023-03-21T15:07:25.324Z,16.55
2023-03-21T15:09:57.936Z,27.42
2023-03-21T15:12:24.441Z,13.32
2023-03-21T15:14:51.295Z,12.60
2023-03-21T15:17:19.280Z,28.95
2023-03-21T15:19:45.868Z,19.10
2023-03-21T15:22:33.754Z,13.35
2023-03-21T15:25:07.566Z,13.60
2023-03-21T15:27:38.614Z,20.10
2023-03-21T15:30:06.584Z,22.30
2023-03-21T15:32:36.309Z,19.63
2023-03-21T15:35:15.771Z,16.73
2023-03-21T15:40:15.375Z,22.45
2023-03-21T15:42:42.116Z,34.55
2023-03-21T15:48:01.301Z,24.90
2023-03-21T15:50:46.506Z,26.67
2023-03-21T15:53:18.786Z,30.15
2023-03-21T15:55:51.627Z,26.17
2023-03-21T15:58:21.526Z,26.20
2023-03-21T16:00:52.788Z,33.55
2023-03-21T16:03:32.461Z,22.92
2023-03-21T16:06:11.354Z,22.88
2023-03-21T16:08:45.540Z,30.63
2023-03-21T16:11:28.599Z,52.55
2023-03-21T16:13:56.316Z,53.95
2023-03-21T16:16:28.003Z,46.85
2023-03-21T16:18:55.932Z,49.40
2023-03-21T16:21:25.593Z,59.22
2023-03-21T16:23:52.696Z,50.83
2023-03-21T16:26:25.505Z,46.10
2023-03-21T16:28:52.150Z,48.50
2023-03-21T16:31:21.489Z,46.72
2023-03-21T16:33:48.402Z,41.88
2023-03-21T16:36:17.868Z,48.97
2023-03-21T16:38:48.326Z,47.13
2023-03-21T16:41:15.639Z,51.53
2023-03-21T16:43:43.624Z,55.33
2023-03-21T16:46:17.121Z,65.82
2023-03-21T16:48:45.686Z,56.38
2023-03-21T16:51:18.003Z,59.15
2023-03-21T16:53:45.763Z,66.88
2023-03-21T16:56:58.617Z,66.40
2023-03-21T16:59:25.262Z,73.80
2023-03-21T17:01:51.710Z,88.97
2023-03-21T17:04:18.617Z,74.50
2023-03-21T17:09:16.419Z,72.88
2023-03-21T17:11:43.591Z,73.13
2023-03-21T17:14:11.836Z,77.53
2023-03-21T17:16:39.161Z,74.65
2023-03-21T17:19:22.353Z,76.72
2023-03-21T17:21:48.769Z,66.63
2023-03-21T17:24:15.367Z,63.90
2023-03-21T17:26:41.938Z,62.47
2023-03-21T17:29:13.128Z,66.88
2023-03-21T17:31:39.618Z,66.07
2023-03-21T17:34:06.169Z,102.10
2023-03-21T17:36:38.130Z,198.90
2023-03-21T17:39:07.308Z,142.75
2023-03-21T17:41:33.754Z,107.40
2023-03-21T17:44:00.466Z,103.72
2023-03-21T17:46:28.190Z,102.72
2023-03-21T17:48:55.190Z,108.30
2023-03-21T17:51:21.686Z,150.32
2023-03-21T17:53:49.986Z,98.55
2023-03-21T17:56:21.796Z,118.32
2023-03-21T17:58:49.157Z,101.63
2023-03-21T18:01:15.677Z,156.38
2023-03-21T18:03:42.197Z,143.18
2023-03-21T18:06:15.146Z,118.53
2023-03-21T18:08:41.785Z,119.80
2023-03-21T18:11:09.114Z,123.30
2023-03-21T18:13:35.888Z,111.03
2023-03-21T18:16:02.660Z,106.53
2023-03-21T18:18:29.199Z,111.10
2023-03-21T18:20:57.953Z,169.48
2023-03-21T18:23:25.420Z,153.93
2023-03-21T18:25:52.662Z,195.23
2023-03-21T18:28:21.228Z,137.00
2023-03-21T18:33:37.222Z,152.85
2023-03-21T18:36:07.535Z,155.48
2023-03-21T18:38:35.255Z,289.63
2023-03-21T18:41:01.767Z,216.07
2023-03-21T18:46:15.546Z,152.23
2023-03-21T18:51:08.471Z,123.00
2023-03-21T18:53:34.912Z,165.98
2023-03-21T18:56:02.007Z,152.55
2023-03-21T18:58:28.526Z,150.27
2023-03-21T19:00:57.484Z,143.57
2023-03-21T19:03:35.661Z,153.35
2023-03-21T19:06:04.030Z,125.35
2023-03-21T19:08:30.900Z,121.20
2023-03-21T19:11:00.211Z,139.50
2023-03-21T19:13:30.105Z,146.00
2023-03-21T19:15:56.918Z,124.13
2023-03-21T19:18:41.450Z,126.40
2023-03-21T19:21:10.263Z,145.77
2023-03-21T19:24:11.765Z,135.40
2023-03-21T19:26:27.434Z,131.95
2023-03-21T19:28:55.003Z,105.65
2023-03-21T19:31:22.752Z,120.18
2023-03-21T19:33:49.512Z,191.13
2023-03-21T19:36:21.944Z,145.65
2023-03-21T19:38:49.134Z,127.18
2023-03-21T19:41:15.777Z,134.80
2023-03-21T19:43:53.200Z,119.85
2023-03-21T19:46:21.176Z,118.30
2023-03-21T19:48:47.673Z,118.35
2023-03-21T19:51:27.558Z,135.73
2023-03-21T19:53:54.548Z,159.35
2023-03-21T19:56:24.620Z,143.95
2023-03-21T19:58:53.461Z,156.15
2023-03-21T20:01:20.524Z,155.43
2023-03-21T20:03:47.131Z,147.85
2023-03-21T20:06:13.624Z,148.60
2023-03-21T20:11:26.595Z,176.32
2023-03-21T20:13:53.145Z,193.77
2023-03-21T20:16:20.449Z,176.93
2023-03-21T20:18:47.431Z,161.38
2023-03-21T20:21:18.041Z,161.00
2023-03-21T20:23:48.149Z,167.07
2023-03-21T20:26:15.002Z,155.73
2023-03-21T20:28:56.141Z,161.13
2023-03-21T20:31:27.985Z,152.93
2023-03-21T20:33:54.457Z,139.13
2023-03-21T20:36:38.851Z,93.70
2023-03-21T20:39:06.855Z,101.45
2023-03-21T20:41:33.442Z,106.93
2023-03-21T20:46:46.600Z,91.70
2023-03-21T20:49:14.007Z,86.20
2023-03-21T20:54:27.219Z,139.55
2023-03-21T20:56:53.705Z,103.10
2023-03-21T20:59:26.595Z,77.63
2023-03-21T21:01:55.142Z,67.22
2023-03-21T21:04:22.430Z,76.30
2023-03-21T21:06:49.618Z,70.75
2023-03-21T21:09:16.912Z,78.18
2023-03-21T21:12:06.161Z,85.75
2023-03-21T21:14:29.982Z,85.90
2023-03-21T21:16:56.455Z,88.15
2023-03-21T21:19:22.911Z,95.40
2023-03-21T21:21:49.372Z,86.60
2023-03-21T21:24:15.798Z,61.72
2023-03-21T21:26:42.337Z,65.20
2023-03-21T21:29:08.865Z,67.53
2023-03-21T21:31:38.230Z,57.78
2023-03-21T21:34:04.708Z,47.47
2023-03-21T21:36:31.178Z,42.28
2023-03-21T21:38:57.634Z,47.50
2023-03-21T21:41:24.064Z,49.75
2023-03-21T21:43:50.525Z,52.15
2023-03-21T21:46:16.996Z,53.35
2023-03-21T21:48:44.281Z,52.28
2023-03-21T21:51:10.948Z,45.33
2023-03-21T21:53:37.515Z,45.75
2023-03-21T21:56:04.174Z,58.03
2023-03-21T21:58:30.675Z,72.05
2023-03-21T22:01:01.204Z,74.45
2023-03-21T22:03:27.791Z,77.70
2023-03-21T22:06:01.925Z,38.88
2023-03-21T22:08:28.415Z,37.22
2023-03-21T22:10:54.967Z,48.30
2023-03-21T22:13:21.520Z,58.05
2023-03-21T22:15:48.302Z,63.67
2023-03-21T22:18:14.806Z,108.07
2023-03-21T22:20:41.484Z,40.22
2023-03-21T22:23:07.997Z,52.35
2023-03-21T22:25:34.513Z,51.65
2023-03-21T22:28:01.074Z,67.47
2023-03-21T22:30:27.604Z,77.68
2023-03-21T22:33:08.433Z,87.45
2023-03-21T22:35:35.278Z,66.47
2023-03-21T22:38:01.747Z,60.38
2023-03-21T22:40:28.281Z,64.18
2023-03-21T22:42:54.753Z,51.72
2023-03-21T22:45:21.205Z,50.15
2023-03-21T22:47:47.679Z,38.70
2023-03-21T22:50:14.224Z,30.83
2023-03-21T22:52:40.694Z,25.10
2023-03-21T22:55:07.440Z,27.00
2023-03-21T22:57:33.896Z,26.95
2023-03-21T23:00:00.370Z,24.73
2023-03-21T23:02:27.178Z,22.85
2023-03-21T23:04:53.643Z,23.08
2023-03-21T23:07:20.131Z,22.77
2023-03-21T23:09:46.624Z,22.15
2023-03-21T23:12:13.077Z,29.42
2023-03-21T23:14:39.539Z,26.25
2023-03-21T23:17:08.435Z,24.48
2023-03-21T23:19:35.061Z,25.35
2023-03-21T23:22:02.709Z,24.90
2023-03-21T23:24:29.152Z,24.17
2023-03-21T23:26:55.656Z,24.50
2023-03-21T23:29:22.082Z,26.00
2023-03-21T23:31:48.548Z,28.77
2023-03-21T23:34:15.051Z,31.75
2023-03-21T23:36:41.842Z,39.72
2023-03-21T23:39:09.012Z,39.33
2023-03-21T23:41:35.554Z,38.25
2023-03-21T23:44:02.006Z,40.67
2023-03-21T23:46:28.537Z,38.50
2023-03-21T23:48:55.038Z,38.45
2023-03-21T23:51:21.736Z,40.17
2023-03-21T23:53:48.206Z,43.47
2023-03-21T23:56:17.973Z,49.10
2023-03-21T23:58:45.339Z,130.40
